createdAt,value
2017-06-24T00:00:05.831Z,17.6
2017-06-24T00:00:21.133Z,16.8
2017-06-24T00:00:36.645Z,14.3
2017-06-24T00:00:52.251Z,16.2
2017-06-24T00:01:07.649Z,14.6
2017-06-24T00:01:23.258Z,16.0
2017-06-24T00:01:38.564Z,18.0
2017-06-24T00:01:53.970Z,14.0
2017-06-24T00:02:09.277Z,16.8
2017-06-24T00:02:24.585Z,16.1
2017-06-24T00:02:39.995Z,18.5
2017-06-24T00:02:55.796Z,20.7
2017-06-24T00:03:11.611Z,18.5
2017-06-24T00:03:27.009Z,18.3
2017-06-24T00:03:42.536Z,16.1
2017-06-24T00:03:58.140Z,15.9
2017-06-24T00:04:13.755Z,16.5
2017-06-24T00:04:29.162Z,18.4
2017-06-24T00:04:44.662Z,16.9
2017-06-24T00:05:00.078Z,17.8
2017-06-24T00:05:15.781Z,17.0
2017-06-24T00:05:31.082Z,14.0
2017-06-24T00:05:46.694Z,14.6
2017-06-24T00:06:02.096Z,17.0
2017-06-24T00:06:17.511Z,16.2
2017-06-24T00:06:32.933Z,17.5
2017-06-24T00:06:48.237Z,18.1
2017-06-24T00:07:03.540Z,16.2
2017-06-24T00:07:18.948Z,19.1
2017-06-24T00:07:34.248Z,20.8
2017-06-24T00:07:49.655Z,20.9
2017-06-24T00:08:05.165Z,21.5
2017-06-24T00:08:20.569Z,23.6
2017-06-24T00:08:35.893Z,20.4
2017-06-24T00:08:51.500Z,21.5
2017-06-24T00:09:06.914Z,22.7
2017-06-24T00:09:22.529Z,21.4
2017-06-24T00:09:37.932Z,23.0
2017-06-24T00:09:53.442Z,19.3
2017-06-24T00:10:09.148Z,17.1
2017-06-24T00:10:24.545Z,16.4
2017-06-24T00:10:40.058Z,16.2
2017-06-24T00:10:55.561Z,20.7
2017-06-24T00:11:11.064Z,17.5
2017-06-24T00:11:26.595Z,17.9
2017-06-24T00:11:42.113Z,20.9
2017-06-24T00:11:57.617Z,17.2
2017-06-24T00:12:13.218Z,19.0
2017-06-24T00:12:29.310Z,19.6
2017-06-24T00:12:45.024Z,17.9
2017-06-24T00:13:00.629Z,17.2
2017-06-24T00:13:15.931Z,17.5
2017-06-24T00:13:31.437Z,17.2
2017-06-24T00:13:47.150Z,17.4
2017-06-24T00:14:02.955Z,17.7
2017-06-24T00:14:18.660Z,21.6
2017-06-24T00:14:33.961Z,21.9
2017-06-24T00:14:49.462Z,20.0
2017-06-24T00:15:05.192Z,20.1
2017-06-24T00:15:20.894Z,16.4
2017-06-24T00:15:36.312Z,18.4
2017-06-24T00:15:51.913Z,19.9
2017-06-24T00:16:07.451Z,19.3
2017-06-24T00:16:23.158Z,18.3
2017-06-24T00:16:38.566Z,17.7
2017-06-24T00:16:53.877Z,14.9
2017-06-24T00:17:09.605Z,16.2
2017-06-24T00:17:25.210Z,17.8
2017-06-24T00:17:40.815Z,15.5
2017-06-24T00:17:56.717Z,18.0
2017-06-24T00:18:12.339Z,16.7
2017-06-24T00:18:27.947Z,18.9
2017-06-24T00:18:43.550Z,19.1
2017-06-24T00:18:58.748Z,17.3
2017-06-24T00:19:14.754Z,15.8
2017-06-24T00:19:30.270Z,14.5
2017-06-24T00:19:45.794Z,18.5
2017-06-24T00:20:01.797Z,18.0
2017-06-24T00:20:17.220Z,19.9
2017-06-24T00:20:32.609Z,16.7
2017-06-24T00:20:47.912Z,14.7
2017-06-24T00:21:03.211Z,18.1
2017-06-24T00:21:19.008Z,15.7
2017-06-24T00:21:34.713Z,17.2
2017-06-24T00:21:50.318Z,15.6
2017-06-24T00:22:05.526Z,13.9
2017-06-24T00:22:20.932Z,17.6
2017-06-24T00:22:36.553Z,16.4
2017-06-24T00:22:51.752Z,17.5
2017-06-24T00:23:07.162Z,17.1
2017-06-24T00:23:22.465Z,16.8
2017-06-24T00:23:37.976Z,20.7
2017-06-24T00:23:53.486Z,22.4
2017-06-24T00:24:08.785Z,21.5
2017-06-24T00:24:24.387Z,18.4
2017-06-24T00:24:39.789Z,16.6
2017-06-24T00:24:55.589Z,12.3
2017-06-24T00:25:10.991Z,12.9
2017-06-24T00:25:26.490Z,14.1
2017-06-24T00:25:41.994Z,11.8
2017-06-24T00:25:57.504Z,12.0
2017-06-24T00:26:13.210Z,12.2
2017-06-24T00:26:28.735Z,14.9
2017-06-24T00:26:44.138Z,15.9
2017-06-24T00:26:59.437Z,17.0
2017-06-24T00:27:14.757Z,16.8
2017-06-24T00:27:30.244Z,13.7
2017-06-24T00:27:45.991Z,13.9
2017-06-24T00:28:01.676Z,15.2
2017-06-24T00:28:17.089Z,16.6
2017-06-24T00:28:32.500Z,16.9
2017-06-24T00:28:47.801Z,19.7
2017-06-24T00:29:03.625Z,18.7
2017-06-24T00:29:19.332Z,17.9
2017-06-24T00:29:34.938Z,16.8
2017-06-24T00:29:50.543Z,13.0
2017-06-24T00:30:05.946Z,13.0
2017-06-24T00:30:21.661Z,12.8
2017-06-24T00:30:37.466Z,13.5
2017-06-24T00:30:52.770Z,15.6
2017-06-24T00:31:08.169Z,16.1
2017-06-24T00:31:23.578Z,18.4
2017-06-24T00:31:39.371Z,20.2
2017-06-24T00:31:54.875Z,26.1
2017-06-24T00:32:10.285Z,25.7
2017-06-24T00:32:25.685Z,25.1
2017-06-24T00:32:41.185Z,16.9
2017-06-24T00:32:56.589Z,16.2
2017-06-24T00:33:12.098Z,17.3
2017-06-24T00:33:27.636Z,18.3
2017-06-24T00:33:43.032Z,22.5
2017-06-24T00:33:58.433Z,21.9
2017-06-24T00:34:13.745Z,20.6
2017-06-24T00:34:29.348Z,19.5
2017-06-24T00:34:44.743Z,17.1
2017-06-24T00:35:00.644Z,18.2
2017-06-24T00:35:16.250Z,22.7
2017-06-24T00:35:31.759Z,21.9
2017-06-24T00:35:47.465Z,20.9
2017-06-24T00:36:02.879Z,17.6
2017-06-24T00:36:18.220Z,14.4
2017-06-24T00:36:33.525Z,14.9
2017-06-24T00:36:49.044Z,16.9
2017-06-24T00:37:04.648Z,16.8
2017-06-24T00:37:20.146Z,18.2
2017-06-24T00:37:35.665Z,18.5
2017-06-24T00:37:50.868Z,18.9
2017-06-24T00:38:06.370Z,20.1
2017-06-24T00:38:21.782Z,17.1
2017-06-24T00:38:37.184Z,16.1
2017-06-24T00:38:52.589Z,14.8
2017-06-24T00:39:07.994Z,17.5
2017-06-24T00:39:23.505Z,17.6
2017-06-24T00:39:38.919Z,19.8
2017-06-24T00:39:54.327Z,16.5
2017-06-24T00:40:09.752Z,15.0
2017-06-24T00:40:25.363Z,16.6
2017-06-24T00:40:40.670Z,16.4
2017-06-24T00:40:56.382Z,17.8
2017-06-24T00:41:11.690Z,18.0
2017-06-24T00:41:27.293Z,16.7
2017-06-24T00:41:42.803Z,16.5
2017-06-24T00:41:58.417Z,19.7
2017-06-24T00:42:14.124Z,19.1
2017-06-24T00:42:29.751Z,22.2
2017-06-24T00:42:44.955Z,22.1
2017-06-24T00:43:00.266Z,19.9
2017-06-24T00:43:15.662Z,19.7
2017-06-24T00:43:31.820Z,18.8
2017-06-24T00:43:47.226Z,21.4
2017-06-24T00:44:02.525Z,22.1
2017-06-24T00:44:17.939Z,24.0
2017-06-24T00:44:33.556Z,21.3
2017-06-24T00:44:48.847Z,19.4
2017-06-24T00:45:04.370Z,16.7
2017-06-24T00:45:19.672Z,15.9
2017-06-24T00:45:35.179Z,17.6
2017-06-24T00:45:51.099Z,17.9
2017-06-24T00:46:06.600Z,18.8
2017-06-24T00:46:22.619Z,15.4
2017-06-24T00:46:38.313Z,13.7
2017-06-24T00:46:53.918Z,12.7
2017-06-24T00:47:09.322Z,15.7
2017-06-24T00:47:24.828Z,16.3
2017-06-24T00:47:40.253Z,19.3
2017-06-24T00:47:55.656Z,18.6
2017-06-24T00:48:11.477Z,16.9
2017-06-24T00:48:27.470Z,14.1
2017-06-24T00:48:43.181Z,13.4
2017-06-24T00:48:58.398Z,14.2
2017-06-24T00:49:14.308Z,13.7
2017-06-24T00:49:29.807Z,14.9
2017-06-24T00:49:45.107Z,15.9
2017-06-24T00:50:00.420Z,16.6
2017-06-24T00:50:15.831Z,17.5
2017-06-24T00:50:31.236Z,17.6
2017-06-24T00:50:46.644Z,13.5
2017-06-24T00:51:02.252Z,14.0
2017-06-24T00:51:17.766Z,16.2
2017-06-24T00:51:33.166Z,16.4
2017-06-24T00:51:48.675Z,17.3
2017-06-24T00:52:04.194Z,17.5
2017-06-24T00:52:19.593Z,14.7
2017-06-24T00:52:35.199Z,18.9
2017-06-24T00:52:50.612Z,19.5
2017-06-24T00:53:06.020Z,19.9
2017-06-24T00:53:21.822Z,19.5
2017-06-24T00:53:37.535Z,17.0
2017-06-24T00:53:52.932Z,18.5
2017-06-24T00:54:08.642Z,19.2
2017-06-24T00:54:24.239Z,20.7
2017-06-24T00:54:39.958Z,20.4
2017-06-24T00:54:55.566Z,18.3
2017-06-24T00:55:11.072Z,17.0
2017-06-24T00:55:26.571Z,19.2
2017-06-24T00:55:42.285Z,17.5
2017-06-24T00:55:57.785Z,18.6
2017-06-24T00:56:13.395Z,16.7
2017-06-24T00:56:28.993Z,14.2
2017-06-24T00:56:44.395Z,13.6
2017-06-24T00:57:00.115Z,13.8
2017-06-24T00:57:15.507Z,13.0
2017-06-24T00:57:31.018Z,13.5
2017-06-24T00:57:46.512Z,14.6
2017-06-24T00:58:01.914Z,16.4
2017-06-24T00:58:17.422Z,19.6
2017-06-24T00:58:33.029Z,19.4
2017-06-24T00:58:48.285Z,18.3
2017-06-24T00:59:03.783Z,17.4
2017-06-24T00:59:19.192Z,15.2
2017-06-24T00:59:35.006Z,17.8
2017-06-24T00:59:50.413Z,17.8
2017-06-24T01:00:05.722Z,17.3
2017-06-24T01:00:21.327Z,17.4
2017-06-24T01:00:36.728Z,16.3
2017-06-24T01:00:52.331Z,17.5
2017-06-24T01:01:07.932Z,20.2
2017-06-24T01:01:23.334Z,19.3
2017-06-24T01:01:38.730Z,20.9
2017-06-24T01:01:54.039Z,18.9
2017-06-24T01:02:09.340Z,17.0
2017-06-24T01:02:24.858Z,16.6
2017-06-24T01:02:40.363Z,16.3
2017-06-24T01:02:55.865Z,16.7
2017-06-24T01:03:11.468Z,20.3
2017-06-24T01:03:27.090Z,21.3
2017-06-24T01:03:42.404Z,20.3
2017-06-24T01:03:58.004Z,20.0
2017-06-24T01:04:13.312Z,16.6
2017-06-24T01:04:28.612Z,17.2
2017-06-24T01:04:43.842Z,17.3
2017-06-24T01:04:59.461Z,21.5
2017-06-24T01:05:14.965Z,21.7
2017-06-24T01:05:30.270Z,21.9
2017-06-24T01:05:45.574Z,21.2
2017-06-24T01:06:01.173Z,19.1
2017-06-24T01:06:17.277Z,17.1
2017-06-24T01:06:32.710Z,20.9
2017-06-24T01:06:48.641Z,19.7
2017-06-24T01:07:04.062Z,19.9
2017-06-24T01:07:19.569Z,19.8
2017-06-24T01:07:35.303Z,14.9
2017-06-24T01:07:50.813Z,16.1
2017-06-24T01:08:06.112Z,17.0
2017-06-24T01:08:21.420Z,17.8
2017-06-24T01:08:36.928Z,18.5
2017-06-24T01:08:52.928Z,18.4
2017-06-24T01:09:08.538Z,20.6
2017-06-24T01:09:24.143Z,21.3
2017-06-24T01:09:39.964Z,21.5
2017-06-24T01:09:55.173Z,24.3
2017-06-24T01:10:10.482Z,25.0
2017-06-24T01:10:25.982Z,23.8
2017-06-24T01:10:41.291Z,22.3
2017-06-24T01:10:56.799Z,16.4
2017-06-24T01:11:12.492Z,13.6
2017-06-24T01:11:28.000Z,15.2
2017-06-24T01:11:43.705Z,15.5
2017-06-24T01:11:59.109Z,17.9
2017-06-24T01:12:14.611Z,19.5
2017-06-24T01:12:30.113Z,18.9
2017-06-24T01:12:45.625Z,16.5
2017-06-24T01:13:01.125Z,14.7
2017-06-24T01:13:16.732Z,12.8
2017-06-24T01:13:32.231Z,11.2
2017-06-24T01:13:47.543Z,12.4
2017-06-24T01:14:02.840Z,14.5
2017-06-24T01:14:18.342Z,15.9
2017-06-24T01:14:33.756Z,18.2
2017-06-24T01:14:48.971Z,16.9
2017-06-24T01:15:04.477Z,15.4
2017-06-24T01:15:20.118Z,17.2
2017-06-24T01:15:35.623Z,17.0
2017-06-24T01:15:51.129Z,17.6
2017-06-24T01:16:06.433Z,14.8
2017-06-24T01:16:21.805Z,12.9
2017-06-24T01:16:37.309Z,14.3
2017-06-24T01:16:52.822Z,14.5
2017-06-24T01:17:08.527Z,14.0
2017-06-24T01:17:24.140Z,15.8
2017-06-24T01:17:39.542Z,13.7
2017-06-24T01:17:55.365Z,14.0
2017-06-24T01:18:11.179Z,13.8
2017-06-24T01:18:26.678Z,16.0
2017-06-24T01:18:42.208Z,15.9
2017-06-24T01:18:57.902Z,16.7
2017-06-24T01:19:13.449Z,14.7
2017-06-24T01:19:29.154Z,14.8
2017-06-24T01:19:44.674Z,14.5
2017-06-24T01:20:00.181Z,16.1
2017-06-24T01:20:15.891Z,18.5
2017-06-24T01:20:31.098Z,17.2
2017-06-24T01:20:46.608Z,17.9
2017-06-24T01:21:02.024Z,16.5
2017-06-24T01:21:17.434Z,15.6
2017-06-24T01:21:32.643Z,14.9
2017-06-24T01:21:48.157Z,14.6
2017-06-24T01:22:03.663Z,13.4
2017-06-24T01:22:19.276Z,12.6
2017-06-24T01:22:34.693Z,12.6
2017-06-24T01:22:50.003Z,14.1
2017-06-24T01:23:05.407Z,13.5
2017-06-24T01:23:20.928Z,15.0
2017-06-24T01:23:36.440Z,16.2
2017-06-24T01:23:52.269Z,14.9
2017-06-24T01:24:07.779Z,14.3
2017-06-24T01:24:23.291Z,16.0
2017-06-24T01:24:38.790Z,15.7
2017-06-24T01:24:54.111Z,15.1
2017-06-24T01:25:09.716Z,14.7
2017-06-24T01:25:25.523Z,11.6
2017-06-24T01:25:41.122Z,10.3
2017-06-24T01:25:56.524Z,13.0
2017-06-24T01:26:12.030Z,15.0
2017-06-24T01:26:27.528Z,13.4
2017-06-24T01:26:42.829Z,13.8
2017-06-24T01:26:58.333Z,12.4
2017-06-24T01:27:13.847Z,11.0
2017-06-24T01:27:29.456Z,11.4
2017-06-24T01:27:45.062Z,12.9
2017-06-24T01:28:00.296Z,10.7
2017-06-24T01:28:15.894Z,12.7
2017-06-24T01:28:31.297Z,13.2
2017-06-24T01:28:46.718Z,13.1
2017-06-24T01:29:02.423Z,15.5
2017-06-24T01:29:17.929Z,14.1
2017-06-24T01:29:33.560Z,14.0
2017-06-24T01:29:48.961Z,12.8
2017-06-24T01:30:04.558Z,14.1
2017-06-24T01:30:19.857Z,14.4
2017-06-24T01:30:35.472Z,15.5
2017-06-24T01:30:51.294Z,15.8
2017-06-24T01:31:06.793Z,14.2
2017-06-24T01:31:22.109Z,14.5
2017-06-24T01:31:37.911Z,12.1
2017-06-24T01:31:53.614Z,11.4
2017-06-24T01:32:09.221Z,11.6
2017-06-24T01:32:25.033Z,14.9
2017-06-24T01:32:40.536Z,14.4
2017-06-24T01:32:56.251Z,14.9
2017-06-24T01:33:11.670Z,12.2
2017-06-24T01:33:26.966Z,8.5
2017-06-24T01:33:42.601Z,9.5
2017-06-24T01:33:57.904Z,10.7
2017-06-24T01:34:13.703Z,14.9
2017-06-24T01:34:29.734Z,14.5
2017-06-24T01:34:45.331Z,14.0
2017-06-24T01:35:01.060Z,13.3
2017-06-24T01:35:16.766Z,12.9
2017-06-24T01:35:32.296Z,14.6
2017-06-24T01:35:47.989Z,16.1
2017-06-24T01:36:03.694Z,14.9
2017-06-24T01:36:19.501Z,12.6
2017-06-24T01:36:35.121Z,11.9
2017-06-24T01:36:50.734Z,10.8
2017-06-24T01:37:06.130Z,10.1
2017-06-24T01:37:21.440Z,10.7
2017-06-24T01:37:37.824Z,11.3
2017-06-24T01:37:53.523Z,9.3
2017-06-24T01:38:09.238Z,9.9
2017-06-24T01:38:24.751Z,9.1
2017-06-24T01:38:40.269Z,9.3
2017-06-24T01:38:55.989Z,10.4
2017-06-24T01:39:11.898Z,10.7
2017-06-24T01:39:27.715Z,11.3
2017-06-24T01:39:43.626Z,11.0
2017-06-24T01:39:59.235Z,9.9
2017-06-24T01:40:14.731Z,8.0
2017-06-24T01:40:30.136Z,8.3
2017-06-24T01:40:46.187Z,13.9
2017-06-24T01:41:01.494Z,14.9
2017-06-24T01:41:17.197Z,16.5
2017-06-24T01:41:32.396Z,16.2
2017-06-24T01:41:48.104Z,12.2
2017-06-24T01:42:03.426Z,11.5
2017-06-24T01:42:19.016Z,11.7
2017-06-24T01:42:34.413Z,10.7
2017-06-24T01:42:50.117Z,8.7
2017-06-24T01:43:06.358Z,11.6
2017-06-24T01:43:21.857Z,10.8
2017-06-24T01:43:37.263Z,14.3
2017-06-24T01:43:52.777Z,15.3
2017-06-24T01:44:08.101Z,14.7
2017-06-24T01:44:23.586Z,16.1
2017-06-24T01:44:39.300Z,14.2
2017-06-24T01:44:54.906Z,12.1
2017-06-24T01:45:10.513Z,10.9
2017-06-24T01:45:25.728Z,9.9
2017-06-24T01:45:41.333Z,11.9
2017-06-24T01:45:56.947Z,13.3
2017-06-24T01:46:12.561Z,14.8
2017-06-24T01:46:28.107Z,14.5
2017-06-24T01:46:43.727Z,13.8
2017-06-24T01:46:59.261Z,11.1
2017-06-24T01:47:14.848Z,10.6
2017-06-24T01:47:30.548Z,9.2
2017-06-24T01:47:46.059Z,11.6
2017-06-24T01:48:01.660Z,12.5
2017-06-24T01:48:17.278Z,13.4
2017-06-24T01:48:32.774Z,12.6
2017-06-24T01:48:48.579Z,10.8
2017-06-24T01:49:04.082Z,12.3
2017-06-24T01:49:19.485Z,11.3
2017-06-24T01:49:34.991Z,11.9
2017-06-24T01:49:50.697Z,13.4
2017-06-24T01:50:06.208Z,10.8
2017-06-24T01:50:21.509Z,9.9
2017-06-24T01:50:37.223Z,9.6
2017-06-24T01:50:53.029Z,9.8
2017-06-24T01:51:08.732Z,11.0
2017-06-24T01:51:24.451Z,11.9
2017-06-24T01:51:39.957Z,13.4
2017-06-24T01:51:55.470Z,15.5
2017-06-24T01:52:11.165Z,15.8
2017-06-24T01:52:26.463Z,17.3
2017-06-24T01:52:41.877Z,16.2
2017-06-24T01:52:57.382Z,13.9
2017-06-24T01:53:12.790Z,12.5
2017-06-24T01:53:28.318Z,10.7
2017-06-24T01:53:43.911Z,8.3
2017-06-24T01:53:59.214Z,7.0
2017-06-24T01:54:14.935Z,8.6
2017-06-24T01:54:30.437Z,10.8
2017-06-24T01:54:46.060Z,11.6
2017-06-24T01:55:01.771Z,13.1
2017-06-24T01:55:17.378Z,14.4
2017-06-24T01:55:32.797Z,15.2
2017-06-24T01:55:48.394Z,19.3
2017-06-24T01:56:03.893Z,21.3
2017-06-24T01:56:19.707Z,19.8
2017-06-24T01:56:35.016Z,19.7
2017-06-24T01:56:50.519Z,17.7
2017-06-24T01:57:06.024Z,13.9
2017-06-24T01:57:21.438Z,14.7
2017-06-24T01:57:36.963Z,13.6
2017-06-24T01:57:52.372Z,13.7
2017-06-24T01:58:07.785Z,15.3
2017-06-24T01:58:23.200Z,15.4
2017-06-24T01:58:39.004Z,13.3
2017-06-24T01:58:54.513Z,17.2
2017-06-24T01:59:10.120Z,19.7
2017-06-24T01:59:25.636Z,18.8
2017-06-24T01:59:41.439Z,18.8
2017-06-24T01:59:57.144Z,17.6
2017-06-24T02:00:12.750Z,14.3
2017-06-24T02:00:28.063Z,13.6
2017-06-24T02:00:43.660Z,13.4
2017-06-24T02:00:59.369Z,12.0
2017-06-24T02:01:15.097Z,11.0
2017-06-24T02:01:30.909Z,11.4
2017-06-24T02:01:46.615Z,10.2
2017-06-24T02:02:02.321Z,11.1
2017-06-24T02:02:17.827Z,13.6
2017-06-24T02:02:33.337Z,14.5
2017-06-24T02:02:48.942Z,14.4
2017-06-24T02:03:04.553Z,13.1
2017-06-24T02:03:19.779Z,13.6
2017-06-24T02:03:35.085Z,14.8
2017-06-24T02:03:50.498Z,14.4
2017-06-24T02:04:06.014Z,13.8
2017-06-24T02:04:21.700Z,12.5
2017-06-24T02:04:37.218Z,9.7
2017-06-24T02:04:52.664Z,11.0
2017-06-24T02:05:08.382Z,12.1
2017-06-24T02:05:23.912Z,10.6
2017-06-24T02:05:39.542Z,11.3
2017-06-24T02:05:54.960Z,11.0
2017-06-24T02:06:10.568Z,10.9
2017-06-24T02:06:26.454Z,14.5
2017-06-24T02:06:42.341Z,13.5
2017-06-24T02:06:57.693Z,14.1
2017-06-24T02:07:13.245Z,14.8
2017-06-24T02:07:29.084Z,11.6
2017-06-24T02:07:45.121Z,11.4
2017-06-24T02:08:01.146Z,9.5
2017-06-24T02:08:16.774Z,9.4
2017-06-24T02:08:32.722Z,11.7
2017-06-24T02:08:48.442Z,12.6
2017-06-24T02:09:04.173Z,15.2
2017-06-24T02:09:19.720Z,14.3
2017-06-24T02:09:35.344Z,14.8
2017-06-24T02:09:50.951Z,14.2
2017-06-24T02:10:06.663Z,13.3
2017-06-24T02:10:22.381Z,12.6
2017-06-24T02:10:37.732Z,11.5
2017-06-24T02:10:53.576Z,13.0
2017-06-24T02:11:09.117Z,16.3
2017-06-24T02:11:24.754Z,16.8
2017-06-24T02:11:40.275Z,17.4
2017-06-24T02:11:56.090Z,18.3
2017-06-24T02:12:11.915Z,16.9
2017-06-24T02:12:27.921Z,14.5
2017-06-24T02:12:43.550Z,14.6
2017-06-24T02:12:59.523Z,13.9
2017-06-24T02:13:15.259Z,12.2
2017-06-24T02:13:31.081Z,11.5
2017-06-24T02:13:46.391Z,10.0
2017-06-24T02:14:02.314Z,11.3
2017-06-24T02:14:17.845Z,15.8
2017-06-24T02:14:33.568Z,16.7
2017-06-24T02:14:49.179Z,17.2
2017-06-24T02:15:05.097Z,18.4
2017-06-24T02:15:20.893Z,15.3
2017-06-24T02:15:36.807Z,15.2
2017-06-24T02:15:52.505Z,14.8
2017-06-24T02:16:08.114Z,13.1
2017-06-24T02:16:24.059Z,14.0
2017-06-24T02:16:39.669Z,14.6
2017-06-24T02:16:55.185Z,17.4
2017-06-24T02:17:10.511Z,17.1
2017-06-24T02:17:26.013Z,15.9
2017-06-24T02:17:41.754Z,14.8
2017-06-24T02:17:57.386Z,11.4
2017-06-24T02:18:13.120Z,10.3
2017-06-24T02:18:28.654Z,9.8
2017-06-24T02:18:44.154Z,10.4
2017-06-24T02:18:59.665Z,12.8
2017-06-24T02:19:15.078Z,13.5
2017-06-24T02:19:30.444Z,17.0
2017-06-24T02:19:45.965Z,15.2
2017-06-24T02:20:01.588Z,13.5
2017-06-24T02:20:17.197Z,14.3
2017-06-24T02:20:32.925Z,10.4
2017-06-24T02:20:48.637Z,13.0
2017-06-24T02:21:04.571Z,13.2
2017-06-24T02:21:20.223Z,13.6
2017-06-24T02:21:35.770Z,12.5
2017-06-24T02:21:51.511Z,10.7
2017-06-24T02:22:07.346Z,10.8
2017-06-24T02:22:22.971Z,10.3
2017-06-24T02:22:38.572Z,12.3
2017-06-24T02:22:53.996Z,13.6
2017-06-24T02:23:09.613Z,14.5
2017-06-24T02:23:25.153Z,13.2
2017-06-24T02:23:40.796Z,12.8
2017-06-24T02:23:56.185Z,12.8
2017-06-24T02:24:11.754Z,10.8
2017-06-24T02:24:27.570Z,11.6
2017-06-24T02:24:43.023Z,11.8
2017-06-24T02:24:58.454Z,12.6
2017-06-24T02:25:13.957Z,13.2
2017-06-24T02:25:29.377Z,12.9
2017-06-24T02:25:45.594Z,12.4
2017-06-24T02:26:01.029Z,17.5
2017-06-24T02:26:16.373Z,17.1
2017-06-24T02:26:32.109Z,17.3
2017-06-24T02:26:47.961Z,17.6
2017-06-24T02:27:03.785Z,9.5
2017-06-24T02:27:19.399Z,10.3
2017-06-24T02:27:34.829Z,9.1
2017-06-24T02:27:50.559Z,9.9
2017-06-24T02:28:06.067Z,11.7
2017-06-24T02:28:21.694Z,12.8
2017-06-24T02:28:37.102Z,15.3
2017-06-24T02:28:52.641Z,13.9
2017-06-24T02:29:08.304Z,15.5
2017-06-24T02:29:23.657Z,16.5
2017-06-24T02:29:39.396Z,14.7
2017-06-24T02:29:55.245Z,14.8
2017-06-24T02:30:10.863Z,11.5
2017-06-24T02:30:26.505Z,10.0
2017-06-24T02:30:42.235Z,9.9
2017-06-24T02:30:57.864Z,11.1
2017-06-24T02:31:13.316Z,11.5
2017-06-24T02:31:28.961Z,11.0
2017-06-24T02:31:44.595Z,10.3
2017-06-24T02:32:00.220Z,11.3
2017-06-24T02:32:15.922Z,12.8
2017-06-24T02:32:31.762Z,12.6
2017-06-24T02:32:47.280Z,12.6
2017-06-24T02:33:02.582Z,11.6
2017-06-24T02:33:18.135Z,12.2
2017-06-24T02:33:33.750Z,12.2
2017-06-24T02:33:49.475Z,11.9
2017-06-24T02:34:04.992Z,8.9
2017-06-24T02:34:20.482Z,9.7
2017-06-24T02:34:36.199Z,9.3
2017-06-24T02:34:51.727Z,9.5
2017-06-24T02:35:07.443Z,12.6
2017-06-24T02:35:22.843Z,13.9
2017-06-24T02:35:38.439Z,13.8
2017-06-24T02:35:54.179Z,14.9
2017-06-24T02:36:09.777Z,14.3
2017-06-24T02:36:25.188Z,14.1
2017-06-24T02:36:41.042Z,13.5
2017-06-24T02:36:56.547Z,9.4
2017-06-24T02:37:12.167Z,10.5
2017-06-24T02:37:27.684Z,8.6
2017-06-24T02:37:43.398Z,10.9
2017-06-24T02:37:58.720Z,16.4
2017-06-24T02:38:14.151Z,16.7
2017-06-24T02:38:29.879Z,18.9
2017-06-24T02:38:45.397Z,16.9
2017-06-24T02:39:01.034Z,16.7
2017-06-24T02:39:16.583Z,17.9
2017-06-24T02:39:32.328Z,15.6
2017-06-24T02:39:47.770Z,14.1
2017-06-24T02:40:03.123Z,12.6
2017-06-24T02:40:18.967Z,10.9
2017-06-24T02:40:34.277Z,14.9
2017-06-24T02:40:50.126Z,15.0
2017-06-24T02:41:05.945Z,14.1
2017-06-24T02:41:21.760Z,14.3
2017-06-24T02:41:37.683Z,12.0
2017-06-24T02:41:53.195Z,13.9
2017-06-24T02:42:09.219Z,14.0
2017-06-24T02:42:24.534Z,14.3
2017-06-24T02:42:40.251Z,15.2
2017-06-24T02:42:55.656Z,14.0
2017-06-24T02:43:11.061Z,12.6
2017-06-24T02:43:26.364Z,11.5
2017-06-24T02:43:41.767Z,11.0
2017-06-24T02:43:57.180Z,10.7
2017-06-24T02:44:12.697Z,11.4
2017-06-24T02:44:28.500Z,12.3
2017-06-24T02:44:44.025Z,14.1
2017-06-24T02:44:59.530Z,12.3
2017-06-24T02:45:14.931Z,13.4
2017-06-24T02:45:30.566Z,14.1
2017-06-24T02:45:45.979Z,15.0
2017-06-24T02:46:01.389Z,16.3
2017-06-24T02:46:17.316Z,13.7
2017-06-24T02:46:32.822Z,13.6
2017-06-24T02:46:48.434Z,11.1
2017-06-24T02:47:03.853Z,10.7
2017-06-24T02:47:23.421Z,9.8
2017-06-24T02:47:39.061Z,12.9
2017-06-24T02:47:54.573Z,14.9
2017-06-24T02:48:10.094Z,16.4
2017-06-24T02:48:25.637Z,15.2
2017-06-24T02:48:41.439Z,13.4
2017-06-24T02:48:56.874Z,12.0
2017-06-24T02:49:12.600Z,11.6
2017-06-24T02:49:28.525Z,12.4
2017-06-24T02:49:44.151Z,10.4
2017-06-24T02:49:59.809Z,10.5
2017-06-24T02:50:16.861Z,9.8
2017-06-24T02:50:32.271Z,8.4
2017-06-24T02:50:47.873Z,9.3
2017-06-24T02:51:03.682Z,8.8
2017-06-24T02:51:19.291Z,10.0
2017-06-24T02:51:34.807Z,10.9
2017-06-24T02:51:50.540Z,11.6
2017-06-24T02:52:05.653Z,11.6
2017-06-24T02:52:21.157Z,11.5
2017-06-24T02:52:36.570Z,10.7
2017-06-24T02:52:52.274Z,11.7
2017-06-24T02:53:07.885Z,12.9
2017-06-24T02:53:23.500Z,12.6
2017-06-24T02:53:39.121Z,12.9
2017-06-24T02:53:54.637Z,10.7
2017-06-24T02:54:10.048Z,9.2
2017-06-24T02:54:25.750Z,9.4
2017-06-24T02:54:41.272Z,10.6
2017-06-24T02:54:56.813Z,11.1
2017-06-24T02:55:12.226Z,11.8
2017-06-24T02:55:27.652Z,11.0
2017-06-24T02:55:43.257Z,11.6
2017-06-24T02:55:58.865Z,12.2
2017-06-24T02:56:14.274Z,13.1
2017-06-24T02:56:29.833Z,13.5
2017-06-24T02:56:45.448Z,11.2
2017-06-24T02:57:00.767Z,9.8
2017-06-24T02:57:16.371Z,9.9
2017-06-24T02:57:32.088Z,11.8
2017-06-24T02:57:47.699Z,13.9
2017-06-24T02:58:03.236Z,14.5
2017-06-24T02:58:18.640Z,13.9
2017-06-24T02:58:34.256Z,12.6
2017-06-24T02:58:49.985Z,10.5
2017-06-24T02:59:05.290Z,10.1
2017-06-24T02:59:20.697Z,8.9
2017-06-24T02:59:36.052Z,9.2
2017-06-24T02:59:51.990Z,10.3
2017-06-24T03:00:07.826Z,13.7
2017-06-24T03:00:23.744Z,13.4
2017-06-24T03:00:39.361Z,13.4
2017-06-24T03:00:54.918Z,14.8
2017-06-24T03:01:10.419Z,12.9
2017-06-24T03:01:25.828Z,13.5
2017-06-24T03:01:41.757Z,13.6
2017-06-24T03:01:57.661Z,12.9
2017-06-24T03:02:13.072Z,11.7
2017-06-24T03:02:28.501Z,11.3
2017-06-24T03:02:44.212Z,10.2
2017-06-24T03:02:59.817Z,8.3
2017-06-24T03:03:15.321Z,11.9
2017-06-24T03:03:30.931Z,12.7
2017-06-24T03:03:46.337Z,13.9
2017-06-24T03:04:01.548Z,12.1
2017-06-24T03:04:17.273Z,11.9
2017-06-24T03:04:32.988Z,11.0
2017-06-24T03:04:48.588Z,11.0
2017-06-24T03:05:03.897Z,12.2
2017-06-24T03:05:19.600Z,10.4
2017-06-24T03:05:35.006Z,10.3
2017-06-24T03:05:50.615Z,9.7
2017-06-24T03:06:06.324Z,9.3
2017-06-24T03:06:22.035Z,10.6
2017-06-24T03:06:37.770Z,12.0
2017-06-24T03:06:53.371Z,11.4
2017-06-24T03:07:08.976Z,11.9
2017-06-24T03:07:24.278Z,10.6
2017-06-24T03:07:39.985Z,11.5
2017-06-24T03:07:55.494Z,13.1
2017-06-24T03:08:11.103Z,12.8
2017-06-24T03:08:26.899Z,14.5
2017-06-24T03:08:42.720Z,13.1
2017-06-24T03:08:58.447Z,12.3
2017-06-24T03:09:14.160Z,11.9
2017-06-24T03:09:29.895Z,10.8
2017-06-24T03:09:45.404Z,10.6
2017-06-24T03:10:01.022Z,10.9
2017-06-24T03:10:16.545Z,12.8
2017-06-24T03:10:36.104Z,11.6
2017-06-24T03:10:51.509Z,10.4
2017-06-24T03:11:07.120Z,9.3
2017-06-24T03:11:22.713Z,7.9
2017-06-24T03:11:38.822Z,9.9
2017-06-24T03:11:54.250Z,10.8
2017-06-24T03:12:09.562Z,12.5
2017-06-24T03:12:24.990Z,13.3
2017-06-24T03:12:40.399Z,13.6
2017-06-24T03:12:56.127Z,12.4
2017-06-24T03:13:11.732Z,11.8
2017-06-24T03:13:27.259Z,10.2
2017-06-24T03:13:43.221Z,9.6
2017-06-24T03:13:58.958Z,13.1
2017-06-24T03:14:14.510Z,13.0
2017-06-24T03:14:30.060Z,17.0
2017-06-24T03:14:45.616Z,19.6
2017-06-24T03:15:01.271Z,17.1
2017-06-24T03:15:17.001Z,17.5
2017-06-24T03:15:32.426Z,15.2
2017-06-24T03:15:48.041Z,13.1
2017-06-24T03:16:03.457Z,10.7
2017-06-24T03:16:19.165Z,10.3
2017-06-24T03:16:35.001Z,7.9
2017-06-24T03:16:50.594Z,8.4
2017-06-24T03:17:06.014Z,8.9
2017-06-24T03:17:21.514Z,10.6
2017-06-24T03:17:37.114Z,11.1
2017-06-24T03:17:52.522Z,9.5
2017-06-24T03:18:08.122Z,10.5
2017-06-24T03:18:23.528Z,7.9
2017-06-24T03:18:39.039Z,8.6
2017-06-24T03:18:54.550Z,9.8
2017-06-24T03:19:10.064Z,10.2
2017-06-24T03:19:25.793Z,10.4
2017-06-24T03:19:41.397Z,10.6
2017-06-24T03:19:56.903Z,9.6
2017-06-24T03:20:12.118Z,10.6
2017-06-24T03:20:27.639Z,10.6
2017-06-24T03:20:43.145Z,11.0
2017-06-24T03:20:58.349Z,12.2
2017-06-24T03:21:14.850Z,11.2
2017-06-24T03:21:30.169Z,11.1
2017-06-24T03:21:45.667Z,10.0
2017-06-24T03:22:01.084Z,10.6
2017-06-24T03:22:16.489Z,11.7
2017-06-24T03:22:31.897Z,12.7
2017-06-24T03:22:47.507Z,13.1
2017-06-24T03:23:03.008Z,10.7
2017-06-24T03:23:18.811Z,10.9
2017-06-24T03:23:34.218Z,15.8
2017-06-24T03:23:49.526Z,15.6
2017-06-24T03:24:05.131Z,16.9
2017-06-24T03:24:20.837Z,18.4
2017-06-24T03:24:36.440Z,12.4
2017-06-24T03:24:51.947Z,11.7
2017-06-24T03:25:07.607Z,14.6
2017-06-24T03:25:22.913Z,13.3
2017-06-24T03:25:38.619Z,15.5
2017-06-24T03:25:54.161Z,14.4
2017-06-24T03:26:09.696Z,12.3
2017-06-24T03:26:25.220Z,15.5
2017-06-24T03:26:41.054Z,15.6
2017-06-24T03:26:56.611Z,13.1
2017-06-24T03:27:12.266Z,12.8
2017-06-24T03:27:28.202Z,9.3
2017-06-24T03:27:43.714Z,9.8